< Typhoon 201224 2012 Season Typhoon 201301 >
Typhoon 201225 (WUKONG)
General InformationDetailed Track InformationTrack Information on Google MapsForecast History on Google MapsAccess Analytics MapList of All Images || Disaster Info.WeblogTrackbackTyphoon FrontTwiphoonTyphoon Now!Typhoon ImaginationResourceGoogle EarthGE AnimationAtom FeedGeoJSON
Detalied Best Track Wind (Time Zone = UTC)
Year Month Day Hour Lat. Long. Wind (kt) Gust (kt) Direc. of Major Storm Axis Radius of Major Storm Axis (nm) Radius of Minor Storm Axis (nm) Direc. of Major Gale Axis Radius of Major Gale Axis (nm) Radius of Minor Gale Axis (nm) Image
2012 12 24 00 7.8 132.6 0 0 - - - - - - Image
2012 12 24 06 9.0 131.7 0 0 - - - - - - Image
2012 12 24 12 9.3 130.9 0 0 - - - - - - Image
2012 12 24 18 9.7 130.0 0 0 - - - - - - Image
2012 12 25 00 10.1 128.8 35 0 - - - symmetric 120 120 Image
2012 12 25 06 10.2 127.2 40 0 - - - symmetric 120 120 Image
2012 12 25 12 10.4 126.3 40 0 - - - symmetric 120 120 Image
2012 12 25 18 10.6 124.7 40 0 - - - symmetric 120 120 Image
2012 12 26 00 10.4 123.3 35 0 - - - symmetric 120 120 Image
2012 12 26 06 10.2 122.0 35 0 - - - symmetric 120 120 Image
2012 12 26 12 10.0 120.4 35 0 - - - symmetric 120 120 Image
2012 12 26 18 10.5 119.0 35 0 - - - symmetric 90 90 Image
2012 12 27 00 10.3 117.4 35 0 - - - symmetric 90 90 Image
2012 12 27 06 10.2 115.9 35 0 - - - symmetric 90 90 Image
2012 12 27 12 10.1 114.8 35 0 - - - symmetric 90 90 Image
2012 12 27 18 10.1 113.6 35 0 - - - symmetric 90 90 Image
2012 12 28 00 9.7 112.5 35 0 - - - symmetric 90 90 Image
2012 12 28 06 8.7 111.0 0 0 - - - - - - Image
2012 12 28 12 8.2 109.8 0 0 - - - - - - Image
2012 12 28 18 7.7 108.4 0 0 - - - - - - Image
2012 12 29 00 7.4 107.3 0 0 - - - - - - Image
2012 12 29 06 7.0 106.0 0 0 - - - - - - Image
2012 12 29 12 7.1 104.9 0 0 - - - - - - Image
Japan Meteorological Agency Best Track Data | Correction Date : 2013-01-17
< Typhoon 201224 2012 Season Typhoon 201301 >

Help